Time;durP1;ratioP1;P1;durP2;ratioP2;P2;SDS_P1;SDS_P2;PMS_P1;PMS_P2;Temp;Humidity;BMP_temperature;BMP_pressure;BME280_temperature;BME280_humidity;BME280_pressure;Samples;Min_cycle;Max_cycle;Signal;HPM_P1;HPM_P2
2023/04/01 00:00:38;;;;;;;;;;;15.80;90.50;;;;;;4195511;28;20318;-62
2023/04/01 00:03:18;;;;;;;;;;;15.80;90.50;;;;;;4186377;28;19931;-62
2023/04/01 00:06:00;;;;;;;;;;;15.80;90.50;;;;;;4176598;28;20280;-63
2023/04/01 00:08:42;;;;;;;;;;;15.80;90.50;;;;;;4165159;28;19936;-63
2023/04/01 00:11:22;;;;;;;;;;;15.80;90.50;;;;;;4178437;28;20291;-63
2023/04/01 00:14:03;;;;;;;;;;;15.80;90.50;;;;;;4178936;28;19936;-63
2023/04/01 00:16:44;;;;;;;;;;;15.80;90.50;;;;;;4182444;28;20314;-62
2023/04/01 00:19:24;;;;;;;;;;;15.80;90.50;;;;;;4192491;28;20399;-62
2023/04/01 00:22:06;;;;;;;;;;;15.80;90.60;;;;;;4177125;28;20498;-62
2023/04/01 00:24:48;;;;;;;;;;;15.80;90.50;;;;;;4178600;28;19936;-62
2023/04/01 00:27:29;;;;;;;;;;;15.80;90.50;;;;;;4178809;28;19932;-62
2023/04/01 00:30:10;;;;;;;;;;;15.80;90.50;;;;;;4179074;28;19936;-62
2023/04/01 00:32:52;;;;;;;;;;;15.70;90.50;;;;;;4177687;28;19932;-62
2023/04/01 00:35:33;;;;;;;;;;;15.80;90.60;;;;;;4186026;28;19943;-63
2023/04/01 00:38:14;;;;;;;;;;;15.70;90.50;;;;;;4166786;28;19932;-62
2023/04/01 00:40:58;;;;;;;;;;;15.70;90.60;;;;;;4177601;28;19974;-63
2023/04/01 00:43:39;;;;;;;;;;;15.70;90.60;;;;;;4178215;28;20029;-64
2023/04/01 00:46:19;;;;;;;;;;;15.70;90.90;;;;;;4190287;28;19935;-62
2023/04/01 00:49:00;;;;;;;;;;;15.70;90.60;;;;;;4149796;28;19931;-62
2023/04/01 00:51:41;;;;;;;;;;;15.70;90.60;;;;;;4161805;28;19936;-63
2023/04/01 00:54:23;;;;;;;;;;;15.70;90.60;;;;;;4175507;28;19936;-62
2023/04/01 00:57:07;;;;;;;;;;;15.80;90.60;;;;;;4176456;28;19935;-62
2023/04/01 00:59:49;;;;;;;;;;;15.70;90.60;;;;;;4194881;28;20415;-63
2023/04/01 01:02:32;;;;;;;;;;;15.70;91.00;;;;;;4193675;28;20260;-64
2023/04/01 01:05:13;;;;;;;;;;;15.70;90.60;;;;;;4202889;28;19951;-64
2023/04/01 01:07:59;;;;;;;;;;;15.70;90.60;;;;;;4194552;28;19931;-63
2023/04/01 01:10:39;;;;;;;;;;;15.70;90.60;;;;;;4184584;28;20327;-63
2023/04/01 01:13:24;;;;;;;;;;;15.70;90.60;;;;;;4177773;28;19932;-62
2023/04/01 01:16:07;;;;;;;;;;;15.70;90.60;;;;;;4190911;28;19935;-62
2023/04/01 01:18:51;;;;;;;;;;;15.70;90.60;;;;;;4192906;28;19932;-62
2023/04/01 01:21:40;;;;;;;;;;;15.70;90.70;;;;;;4194685;28;19977;-62
2023/04/01 01:24:29;;;;;;;;;;;15.70;90.60;;;;;;4189555;28;20013;-62
2023/04/01 01:27:11;;;;;;;;;;;15.70;90.70;;;;;;4177029;28;20279;-63
2023/04/01 01:30:16;;;;;;;;;;;15.70;91.10;;;;;;4176416;28;19935;-63
2023/04/01 01:33:07;;;;;;;;;;;15.70;90.70;;;;;;4177599;28;20082;-63
2023/04/01 01:35:50;;;;;;;;;;;15.70;90.70;;;;;;4190554;28;20013;-63
2023/04/01 01:38:34;;;;;;;;;;;15.70;90.70;;;;;;4161033;28;20318;-63
2023/04/01 01:41:18;;;;;;;;;;;15.70;90.70;;;;;;4171765;28;19971;-63
2023/04/01 01:44:00;;;;;;;;;;;15.60;90.70;;;;;;4166818;28;19943;-63
2023/04/01 01:46:42;;;;;;;;;;;15.70;90.70;;;;;;4192358;28;20564;-67
2023/04/01 01:49:23;;;;;;;;;;;15.70;91.10;;;;;;4192604;28;19943;-65
2023/04/01 01:52:05;;;;;;;;;;;15.60;90.70;;;;;;4192705;28;19938;-66
2023/04/01 01:54:49;;;;;;;;;;;15.60;90.70;;;;;;4192864;28;20070;-66
2023/04/01 01:57:32;;;;;;;;;;;15.70;90.70;;;;;;4182307;28;20450;-65
2023/04/01 02:00:15;;;;;;;;;;;15.70;90.70;;;;;;4175705;28;19932;-65
2023/04/01 02:02:58;;;;;;;;;;;15.60;90.80;;;;;;4175650;28;19932;-64
2023/04/01 02:05:39;;;;;;;;;;;15.70;90.80;;;;;;4148194;28;19936;-65
2023/04/01 02:08:27;;;;;;;;;;;15.70;90.80;;;;;;4190213;28;19932;-63
2023/04/01 02:11:08;;;;;;;;;;;15.70;90.80;;;;;;4177061;28;19931;-63
2023/04/01 02:13:54;;;;;;;;;;;15.70;90.70;;;;;;4179884;28;20013;-62
2023/04/01 02:16:36;;;;;;;;;;;15.70;90.70;;;;;;4191317;28;20406;-63
2023/04/01 02:19:22;;;;;;;;;;;15.70;90.70;;;;;;4192144;28;20054;-63
2023/04/01 02:22:04;;;;;;;;;;;15.70;90.70;;;;;;4188953;28;19940;-63
2023/04/01 02:24:50;;;;;;;;;;;15.70;90.70;;;;;;4185513;28;19935;-64
2023/04/01 02:27:31;;;;;;;;;;;15.70;90.80;;;;;;4193073;28;19964;-63
2023/04/01 02:30:12;;;;;;;;;;;15.70;90.70;;;;;;4191347;28;19936;-63
2023/04/01 02:32:54;;;;;;;;;;;15.80;90.80;;;;;;4181596;28;19977;-63
2023/04/01 02:35:37;;;;;;;;;;;15.80;91.10;;;;;;4175001;28;19931;-63
2023/04/01 02:38:17;;;;;;;;;;;15.80;90.50;;;;;;4175638;28;19931;-62
2023/04/01 02:41:01;;;;;;;;;;;15.80;90.50;;;;;;4157971;28;20050;-65
2023/04/01 02:43:42;;;;;;;;;;;15.80;90.50;;;;;;4166246;28;20019;-64
2023/04/01 02:46:22;;;;;;;;;;;15.80;90.40;;;;;;4175560;28;19931;-64
2023/04/01 02:49:04;;;;;;;;;;;15.80;90.50;;;;;;4175605;28;19999;-64
2023/04/01 02:51:44;;;;;;;;;;;15.80;90.40;;;;;;4188846;28;19936;-64
2023/04/01 02:54:25;;;;;;;;;;;15.80;90.50;;;;;;4185755;28;20394;-65
2023/04/01 02:57:07;;;;;;;;;;;15.80;90.40;;;;;;4174819;28;20038;-64
2023/04/01 02:59:48;;;;;;;;;;;15.80;90.30;;;;;;4175295;28;19931;-64
2023/04/01 03:02:29;;;;;;;;;;;15.80;90.40;;;;;;4175416;28;19943;-64
2023/04/01 03:05:10;;;;;;;;;;;15.80;90.30;;;;;;4174644;28;20095;-65
2023/04/01 03:07:51;;;;;;;;;;;15.80;90.20;;;;;;4174406;28;19932;-65
2023/04/01 03:10:31;;;;;;;;;;;15.80;90.00;;;;;;4180686;28;19935;-64
2023/04/01 03:13:14;;;;;;;;;;;15.80;90.60;;;;;;4180206;28;20081;-66
2023/04/01 03:15:55;;;;;;;;;;;15.80;90.10;;;;;;4174420;28;20137;-65
2023/04/01 03:18:36;;;;;;;;;;;15.80;90.10;;;;;;4175941;28;20394;-64
2023/04/01 03:21:18;;;;;;;;;;;15.80;90.00;;;;;;4175725;28;19943;-64
2023/04/01 03:23:59;;;;;;;;;;;15.80;89.50;;;;;;4175661;28;19936;-64
2023/04/01 03:26:41;;;;;;;;;;;15.80;88.60;;;;;;4174131;28;19935;-64
2023/04/01 03:29:24;;;;;;;;;;;15.80;88.50;;;;;;4182915;28;19931;-65
2023/04/01 03:32:04;;;;;;;;;;;15.80;88.70;;;;;;4174925;28;20066;-63
2023/04/01 03:34:45;;;;;;;;;;;15.80;89.20;;;;;;4175542;28;19932;-63
2023/04/01 03:37:26;;;;;;;;;;;15.80;90.20;;;;;;4174288;28;20493;-62
2023/04/01 03:40:09;;;;;;;;;;;15.80;89.10;;;;;;4188170;28;24184;-62
2023/04/01 03:42:50;;;;;;;;;;;15.80;88.70;;;;;;4174741;28;19939;-62
2023/04/01 03:45:32;;;;;;;;;;;15.80;88.90;;;;;;4176105;28;20342;-62
2023/04/01 03:48:13;;;;;;;;;;;15.80;88.90;;;;;;4159185;28;19948;-63
2023/04/01 03:50:53;;;;;;;;;;;15.80;89.00;;;;;;4179195;28;19978;-62
2023/04/01 03:53:35;;;;;;;;;;;15.80;88.90;;;;;;4179258;28;20033;-62
2023/04/01 03:56:18;;;;;;;;;;;15.70;89.10;;;;;;4191173;28;20414;-62
2023/04/01 03:58:59;;;;;;;;;;;15.70;89.10;;;;;;4180081;28;19944;-62
2023/04/01 04:01:41;;;;;;;;;;;15.80;89.20;;;;;;4174627;28;20066;-62
2023/04/01 04:04:22;;;;;;;;;;;15.70;89.40;;;;;;4174364;28;20411;-64
2023/04/01 04:07:03;;;;;;;;;;;15.70;89.40;;;;;;4188759;28;19931;-62
2023/04/01 04:09:56;;;;;;;;;;;15.70;88.00;;;;;;4190855;28;19954;-64
2023/04/01 04:12:37;;;;;;;;;;;15.70;88.70;;;;;;4191242;28;19936;-63
2023/04/01 04:15:18;;;;;;;;;;;15.70;88.60;;;;;;4191007;28;20274;-64
2023/04/01 04:18:00;;;;;;;;;;;15.80;88.50;;;;;;4159203;28;20063;-64
2023/04/01 04:20:45;;;;;;;;;;;15.80;88.00;;;;;;4168576;28;19999;-62
2023/04/01 04:23:26;;;;;;;;;;;15.80;87.80;;;;;;4174151;28;20287;-64
2023/04/01 04:26:08;;;;;;;;;;;15.80;89.00;;;;;;4186052;28;20391;-64
2023/04/01 04:28:49;;;;;;;;;;;15.80;88.10;;;;;;4187721;28;20454;-64
2023/04/01 04:31:31;;;;;;;;;;;15.80;87.80;;;;;;4190842;28;19932;-64
2023/04/01 04:34:14;;;;;;;;;;;15.80;88.20;;;;;;4190647;28;20394;-64
2023/04/01 04:36:55;;;;;;;;;;;15.80;88.70;;;;;;4183103;28;19935;-62
2023/04/01 04:39:41;;;;;;;;;;;15.70;88.10;;;;;;4175950;28;19936;-63
2023/04/01 04:42:21;;;;;;;;;;;15.70;88.10;;;;;;4188984;28;19931;-62
2023/04/01 04:45:07;;;;;;;;;;;15.70;87.80;;;;;;4177038;28;19936;-64
2023/04/01 04:47:48;;;;;;;;;;;15.80;87.70;;;;;;4177054;28;20292;-64
2023/04/01 04:50:30;;;;;;;;;;;15.80;87.70;;;;;;4177069;28;19936;-64
2023/04/01 04:53:12;;;;;;;;;;;15.70;87.30;;;;;;4177417;28;19936;-64
2023/04/01 04:55:53;;;;;;;;;;;15.70;87.70;;;;;;4160727;28;19936;-63
2023/04/01 04:58:57;;;;;;;;;;;15.70;87.50;;;;;;4193226;28;20074;-62
2023/04/01 05:01:45;;;;;;;;;;;15.70;87.50;;;;;;4193976;28;20057;-62
2023/04/01 05:04:27;;;;;;;;;;;15.70;87.40;;;;;;4193523;28;19931;-62
2023/04/01 05:07:09;;;;;;;;;;;15.80;87.20;;;;;;4180479;28;20470;-62
2023/04/01 05:09:50;;;;;;;;;;;15.70;86.90;;;;;;4176839;28;19936;-64
2023/04/01 05:12:32;;;;;;;;;;;15.70;86.90;;;;;;4177312;28;20311;-63
2023/04/01 05:15:15;;;;;;;;;;;15.70;87.00;;;;;;4159657;28;19936;-64
2023/04/01 05:17:56;;;;;;;;;;;15.70;87.60;;;;;;4144196;28;20139;-63
2023/04/01 05:20:37;;;;;;;;;;;15.70;87.90;;;;;;4155621;28;19932;-64
2023/04/01 05:23:20;;;;;;;;;;;15.80;88.40;;;;;;4155397;28;19936;-62
2023/04/01 05:26:03;;;;;;;;;;;15.70;87.60;;;;;;4172916;28;20063;-63
2023/04/01 05:28:44;;;;;;;;;;;15.70;87.30;;;;;;4193037;28;20111;-63
2023/04/01 05:31:25;;;;;;;;;;;15.70;87.20;;;;;;4192068;28;19931;-63
2023/04/01 05:34:06;;;;;;;;;;;15.70;89.10;;;;;;4185742;28;19935;-63
2023/04/01 05:36:47;;;;;;;;;;;15.80;88.10;;;;;;4181962;28;19932;-62
2023/04/01 05:39:31;;;;;;;;;;;15.80;87.50;;;;;;4177415;28;19936;-62
2023/04/01 05:42:11;;;;;;;;;;;15.80;88.70;;;;;;4176072;28;19935;-62
2023/04/01 05:44:55;;;;;;;;;;;15.80;87.90;;;;;;4187536;28;19931;-63
2023/04/01 05:48:02;;;;;;;;;;;15.80;87.00;;;;;;4181468;28;20295;-62
2023/04/01 05:50:48;;;;;;;;;;;15.80;86.80;;;;;;4186467;28;20449;-64
2023/04/01 05:53:29;;;;;;;;;;;15.80;86.70;;;;;;4179032;28;20025;-54
2023/04/01 05:56:11;;;;;;;;;;;15.80;87.40;;;;;;4166687;28;20042;-63
2023/04/01 05:58:58;;;;;;;;;;;15.80;87.50;;;;;;4165195;28;19931;-64
2023/04/01 06:01:39;;;;;;;;;;;15.90;87.50;;;;;;4196628;28;19951;-63
2023/04/01 06:04:20;;;;;;;;;;;15.90;87.50;;;;;;4192477;28;19947;-63
2023/04/01 06:07:00;;;;;;;;;;;15.90;87.10;;;;;;4147796;28;19932;-63
2023/04/01 06:09:42;;;;;;;;;;;15.90;86.60;;;;;;4166203;28;19935;-63
2023/04/01 06:12:30;;;;;;;;;;;15.90;87.40;;;;;;4183276;28;19975;-63
2023/04/01 06:15:21;;;;;;;;;;;15.90;87.80;;;;;;4166654;28;19935;-63
2023/04/01 06:18:22;;;;;;;;;;;15.80;88.30;;;;;;4179713;28;19948;-63
2023/04/01 06:21:05;;;;;;;;;;;15.80;89.40;;;;;;4159166;28;19935;-63
2023/04/01 06:23:52;;;;;;;;;;;15.80;88.90;;;;;;4168862;28;20299;-63
2023/04/01 06:26:37;;;;;;;;;;;15.80;89.90;;;;;;4175582;28;20291;-63
2023/04/01 06:29:36;;;;;;;;;;;15.80;88.70;;;;;;4175540;28;19931;-63
2023/04/01 06:32:34;;;;;;;;;;;15.80;89.00;;;;;;4175474;28;19975;-62
2023/04/01 06:35:30;;;;;;;;;;;15.80;89.10;;;;;;4186746;28;19932;-67
2023/04/01 06:38:29;;;;;;;;;;;15.70;88.90;;;;;;4175533;28;19943;-66
2023/04/01 06:41:19;;;;;;;;;;;15.70;88.70;;;;;;4154388;28;20022;-67
2023/04/01 06:44:05;;;;;;;;;;;15.70;89.10;;;;;;4163948;28;19935;-64
2023/04/01 06:47:12;;;;;;;;;;;15.70;89.40;;;;;;4173145;28;19975;-62
2023/04/01 06:50:31;;;;;;;;;;;15.70;89.40;;;;;;4170832;28;19991;-65
2023/04/01 06:53:41;;;;;;;;;;;15.60;89.10;;;;;;4158441;28;19931;-65
2023/04/01 06:56:27;;;;;;;;;;;15.60;88.90;;;;;;4176087;28;19932;-70
2023/04/01 06:59:14;;;;;;;;;;;15.60;88.90;;;;;;4175107;28;20490;-66
2023/04/01 07:01:56;;;;;;;;;;;15.60;88.90;;;;;;4147878;28;19979;-64
2023/04/01 07:04:40;;;;;;;;;;;15.50;88.80;;;;;;4178949;28;20530;-64
2023/04/01 07:07:25;;;;;;;;;;;15.50;89.10;;;;;;4181775;28;19936;-64
2023/04/01 07:10:13;;;;;;;;;;;15.60;89.60;;;;;;4190872;28;19958;-64
2023/04/01 07:13:17;;;;;;;;;;;15.50;89.30;;;;;;4160835;28;20041;-64
2023/04/01 07:16:11;;;;;;;;;;;15.60;89.40;;;;;;4128928;28;19948;-64
2023/04/01 07:18:57;;;;;;;;;;;15.60;90.00;;;;;;4140349;28;19933;-65
2023/04/01 07:21:45;;;;;;;;;;;15.60;89.00;;;;;;4155690;28;19932;-65
2023/04/01 07:24:38;;;;;;;;;;;15.70;89.00;;;;;;4164810;28;19931;-64
2023/04/01 07:27:24;;;;;;;;;;;15.60;89.00;;;;;;4145632;28;19966;-64
2023/04/01 07:30:13;;;;;;;;;;;15.60;89.10;;;;;;4170305;28;20386;-64
2023/04/01 07:33:03;;;;;;;;;;;15.60;89.50;;;;;;4177272;28;19974;-72
2023/04/01 07:35:46;;;;;;;;;;;15.60;89.70;;;;;;4165541;28;20257;-69
2023/04/01 07:38:31;;;;;;;;;;;15.60;89.70;;;;;;4178384;28;19975;-68
2023/04/01 07:41:20;;;;;;;;;;;15.70;89.90;;;;;;4168377;28;19936;-67
2023/04/01 07:44:08;;;;;;;;;;;15.60;89.30;;;;;;4169282;28;19948;-67
2023/04/01 07:46:56;;;;;;;;;;;15.60;89.00;;;;;;4187757;28;19991;-66
2023/04/01 07:49:41;;;;;;;;;;;15.60;88.90;;;;;;4162417;28;20038;-68
2023/04/01 07:52:29;;;;;;;;;;;15.60;89.30;;;;;;4174338;28;20304;-67
2023/04/01 07:55:19;;;;;;;;;;;15.60;89.20;;;;;;4173692;28;19935;-67
2023/04/01 07:58:04;;;;;;;;;;;15.60;89.40;;;;;;4175365;28;20410;-67
2023/04/01 08:00:51;;;;;;;;;;;15.50;90.10;;;;;;4174362;28;20592;-67
2023/04/01 08:03:48;;;;;;;;;;;15.50;89.40;;;;;;4194053;28;20013;-67
2023/04/01 08:06:33;;;;;;;;;;;15.50;89.70;;;;;;4161023;28;20306;-67
2023/04/01 08:09:20;;;;;;;;;;;15.50;90.00;;;;;;4188185;28;20292;-68
2023/04/01 08:12:25;;;;;;;;;;;15.50;90.30;;;;;;4191910;28;19992;-67
2023/04/01 08:15:21;;;;;;;;;;;15.50;90.30;;;;;;4193840;28;20279;-67
2023/04/01 08:18:16;;;;;;;;;;;15.50;89.90;;;;;;4193216;28;20039;-66
2023/04/01 08:20:59;;;;;;;;;;;15.50;89.40;;;;;;4195637;28;19935;-67
2023/04/01 08:23:44;;;;;;;;;;;15.50;89.60;;;;;;4149915;28;19932;-67
2023/04/01 08:26:30;;;;;;;;;;;15.50;89.80;;;;;;4183943;28;19987;-67
2023/04/01 08:29:12;;;;;;;;;;;15.50;89.90;;;;;;4175242;28;19944;-67
2023/04/01 08:31:56;;;;;;;;;;;15.50;90.00;;;;;;4170500;28;19932;-68
2023/04/01 08:34:38;;;;;;;;;;;15.50;90.00;;;;;;4179209;28;19931;-68
2023/04/01 08:37:26;;;;;;;;;;;15.50;89.80;;;;;;4160721;28;19932;-67
2023/04/01 08:40:23;;;;;;;;;;;15.40;89.60;;;;;;4182509;28;19935;-68
2023/04/01 08:43:09;;;;;;;;;;;15.40;90.00;;;;;;4165935;28;19932;-68
2023/04/01 08:46:15;;;;;;;;;;;15.40;89.70;;;;;;4193232;28;19936;-68
2023/04/01 08:49:06;;;;;;;;;;;15.40;89.30;;;;;;4179528;28;19940;-68
2023/04/01 08:51:58;;;;;;;;;;;15.40;89.70;;;;;;4178421;28;20074;-68
2023/04/01 08:54:45;;;;;;;;;;;15.40;89.60;;;;;;4176984;28;20018;-68
2023/04/01 08:57:38;;;;;;;;;;;15.40;90.00;;;;;;4171900;28;19944;-68
2023/04/01 09:00:41;;;;;;;;;;;15.40;89.30;;;;;;4177860;28;19936;-68
2023/04/01 09:03:39;;;;;;;;;;;15.40;89.40;;;;;;4175139;28;20022;-67
2023/04/01 09:06:30;;;;;;;;;;;15.40;89.10;;;;;;4174455;28;20066;-68
2023/04/01 09:09:23;;;;;;;;;;;15.40;89.30;;;;;;4186035;28;19971;-67
2023/04/01 09:12:19;;;;;;;;;;;15.40;88.10;;;;;;4180171;28;19936;-68
2023/04/01 09:15:18;;;;;;;;;;;15.40;87.90;;;;;;4178042;28;19940;-67
2023/04/01 09:18:13;;;;;;;;;;;15.60;87.10;;;;;;4174400;28;19936;-68
2023/04/01 09:21:13;;;;;;;;;;;15.70;87.90;;;;;;4185188;28;19931;-68
2023/04/01 09:24:00;;;;;;;;;;;15.80;86.80;;;;;;4175827;28;20363;-68
2023/04/01 09:26:58;;;;;;;;;;;15.90;86.00;;;;;;4175430;28;19936;-67
2023/04/01 09:29:54;;;;;;;;;;;15.90;84.60;;;;;;4185290;28;19936;-67
2023/04/01 09:32:54;;;;;;;;;;;16.00;85.30;;;;;;4175225;28;19935;-67
2023/04/01 09:35:47;;;;;;;;;;;16.00;83.50;;;;;;4173845;28;19939;-66
2023/04/01 09:38:30;;;;;;;;;;;16.00;82.80;;;;;;4173616;28;19935;-67
2023/04/01 09:41:16;;;;;;;;;;;16.00;83.40;;;;;;4184958;28;20715;-66
2023/04/01 09:44:13;;;;;;;;;;;16.00;83.40;;;;;;4173441;28;19943;-69
2023/04/01 09:47:15;;;;;;;;;;;16.00;82.70;;;;;;4184589;28;19936;-67
2023/04/01 09:50:11;;;;;;;;;;;16.00;82.70;;;;;;4184792;28;20051;-67
2023/04/01 09:52:57;;;;;;;;;;;16.00;80.80;;;;;;4176616;28;20289;-67
2023/04/01 09:55:54;;;;;;;;;;;16.00;82.10;;;;;;4174457;28;19951;-68
2023/04/01 09:58:48;;;;;;;;;;;16.00;82.60;;;;;;4172875;28;19939;-69
2023/04/01 10:02:22;;;;;;;;;;;16.00;82.60;;;;;;4177315;28;20308;-66
2023/04/01 10:05:22;;;;;;;;;;;16.00;82.80;;;;;;4125826;28;20400;-67
2023/04/01 10:08:23;;;;;;;;;;;16.00;82.40;;;;;;4128083;28;20071;-70
2023/04/01 10:11:28;;;;;;;;;;;15.90;81.10;;;;;;4184244;28;20029;-68
2023/04/01 10:14:24;;;;;;;;;;;15.90;81.20;;;;;;4178917;28;19935;-68
2023/04/01 10:17:23;;;;;;;;;;;15.90;81.00;;;;;;4183960;28;20033;-68
2023/04/01 10:20:22;;;;;;;;;;;15.80;81.30;;;;;;4172715;28;19932;-68
2023/04/01 10:23:20;;;;;;;;;;;15.80;82.70;;;;;;4172302;28;20849;-69
2023/04/01 10:26:28;;;;;;;;;;;15.80;82.20;;;;;;4172882;28;19952;-66
2023/04/01 10:29:37;;;;;;;;;;;15.80;81.90;;;;;;4128935;28;19947;-68
2023/04/01 10:32:29;;;;;;;;;;;15.90;82.00;;;;;;4195959;28;19935;-66
2023/04/01 10:35:27;;;;;;;;;;;16.00;82.90;;;;;;4172574;28;19936;-66
2023/04/01 10:38:23;;;;;;;;;;;16.00;81.80;;;;;;4177197;28;20074;-66
2023/04/01 10:41:36;;;;;;;;;;;16.00;81.40;;;;;;4172414;28;19932;-66
2023/04/01 10:44:53;;;;;;;;;;;16.00;81.90;;;;;;4173495;28;19967;-66
2023/04/01 10:47:56;;;;;;;;;;;16.00;80.50;;;;;;4184003;28;20338;-66
2023/04/01 10:50:51;;;;;;;;;;;16.00;80.20;;;;;;4172959;28;20146;-66
2023/04/01 10:53:35;;;;;;;;;;;16.00;80.50;;;;;;4172178;28;20935;-67
2023/04/01 10:56:35;;;;;;;;;;;15.90;81.70;;;;;;4172037;28;20395;-68
2023/04/01 11:00:12;;;;;;;;;;;15.90;80.70;;;;;;4138455;28;20301;-67
2023/04/01 11:03:17;;;;;;;;;;;15.90;79.60;;;;;;4173467;28;19931;-67
2023/04/01 11:06:51;;;;;;;;;;;15.80;79.50;;;;;;4143637;28;20371;-67
2023/04/01 11:09:43;;;;;;;;;;;15.80;80.00;;;;;;4171789;28;19931;-64
2023/04/01 11:12:51;;;;;;;;;;;15.80;80.70;;;;;;4174612;28;19936;-68
2023/04/01 11:15:48;;;;;;;;;;;15.90;80.90;;;;;;4169990;28;20406;-67
2023/04/01 11:18:46;;;;;;;;;;;15.90;80.00;;;;;;4164740;28;20436;-64
2023/04/01 11:21:48;;;;;;;;;;;15.90;80.30;;;;;;4191909;28;19931;-64
2023/04/01 11:24:37;;;;;;;;;;;15.90;82.80;;;;;;4190989;28;20358;-63
2023/04/01 11:27:51;;;;;;;;;;;15.90;83.50;;;;;;4188723;28;19931;-63
2023/04/01 11:30:41;;;;;;;;;;;15.90;82.10;;;;;;4191029;28;19932;-63
2023/04/01 11:33:25;;;;;;;;;;;15.90;82.40;;;;;;4190806;28;19935;-64
2023/04/01 11:36:16;;;;;;;;;;;16.00;80.80;;;;;;4190495;28;19959;-64
2023/04/01 11:39:01;;;;;;;;;;;16.10;78.70;;;;;;4190928;28;19932;-64
2023/04/01 11:42:04;;;;;;;;;;;16.10;76.80;;;;;;4192032;28;19935;-64
2023/04/01 11:45:14;;;;;;;;;;;16.00;78.70;;;;;;4192064;28;19936;-63
2023/04/01 11:48:04;;;;;;;;;;;16.00;79.90;;;;;;4190337;28;20299;-63
2023/04/01 11:50:52;;;;;;;;;;;16.10;77.50;;;;;;4190716;28;19935;-63
2023/04/01 11:53:38;;;;;;;;;;;16.00;77.90;;;;;;4191061;28;19932;-63
2023/04/01 11:56:32;;;;;;;;;;;16.00;77.90;;;;;;4192581;28;19932;-63
2023/04/01 11:59:35;;;;;;;;;;;16.00;79.60;;;;;;4192137;28;19935;-62
2023/04/01 12:02:21;;;;;;;;;;;16.00;79.70;;;;;;4191621;28;19943;-62
2023/04/01 12:05:21;;;;;;;;;;;16.00;78.90;;;;;;4192113;28;19939;-63
2023/04/01 12:08:14;;;;;;;;;;;16.00;78.60;;;;;;4191792;28;19978;-63
2023/04/01 12:10:59;;;;;;;;;;;16.00;78.00;;;;;;4191809;28;20021;-63
2023/04/01 12:13:44;;;;;;;;;;;16.10;77.50;;;;;;4164106;28;20059;-63
2023/04/01 12:16:41;;;;;;;;;;;16.10;77.60;;;;;;4161898;28;19939;-63
2023/04/01 12:19:28;;;;;;;;;;;16.20;77.10;;;;;;4174108;28;19935;-63
2023/04/01 12:22:20;;;;;;;;;;;16.20;76.70;;;;;;4197122;28;19977;-63
2023/04/01 12:25:12;;;;;;;;;;;16.20;76.60;;;;;;4183954;28;19931;-64
2023/04/01 12:28:03;;;;;;;;;;;16.20;76.70;;;;;;4168300;28;19931;-63
2023/04/01 12:30:48;;;;;;;;;;;16.20;76.40;;;;;;4177887;28;19947;-64
2023/04/01 12:33:49;;;;;;;;;;;16.20;78.60;;;;;;4174422;28;19936;-64
2023/04/01 12:36:41;;;;;;;;;;;16.20;78.40;;;;;;4174799;28;19960;-64
2023/04/01 12:39:33;;;;;;;;;;;16.20;78.00;;;;;;4185262;28;19940;-64
2023/04/01 12:42:21;;;;;;;;;;;16.20;76.50;;;;;;4158897;28;19935;-63
2023/04/01 12:45:08;;;;;;;;;;;16.20;77.10;;;;;;4169728;28;19936;-64
2023/04/01 12:47:58;;;;;;;;;;;16.10;77.20;;;;;;4177593;28;20287;-63
2023/04/01 12:50:47;;;;;;;;;;;16.10;76.90;;;;;;4174938;28;20121;-63
2023/04/01 12:53:39;;;;;;;;;;;16.10;75.70;;;;;;4172903;28;19946;-64
2023/04/01 12:56:25;;;;;;;;;;;16.20;75.80;;;;;;4172106;28;19939;-65
2023/04/01 12:59:18;;;;;;;;;;;16.20;75.80;;;;;;4174408;28;19975;-64
2023/04/01 13:02:08;;;;;;;;;;;16.10;75.10;;;;;;4175346;28;19936;-63
2023/04/01 13:05:08;;;;;;;;;;;16.10;75.90;;;;;;4177954;28;19932;-64
2023/04/01 13:07:56;;;;;;;;;;;16.10;75.90;;;;;;4162315;28;19933;-66
2023/04/01 13:10:51;;;;;;;;;;;16.10;75.10;;;;;;4177746;28;19932;-66
2023/04/01 13:13:44;;;;;;;;;;;16.00;75.50;;;;;;4177609;28;20475;-65
2023/04/01 13:16:27;;;;;;;;;;;16.00;76.30;;;;;;4177882;28;19959;-66
2023/04/01 13:19:09;;;;;;;;;;;15.90;75.80;;;;;;4165527;28;19931;-66
2023/04/01 13:21:55;;;;;;;;;;;15.90;75.50;;;;;;4176737;28;19956;-63
2023/04/01 13:24:42;;;;;;;;;;;15.80;75.90;;;;;;4175151;28;19935;-67
2023/04/01 13:27:26;;;;;;;;;;;15.80;76.70;;;;;;4192012;28;20005;-65
2023/04/01 13:30:19;;;;;;;;;;;15.80;75.60;;;;;;4191186;28;19951;-66
2023/04/01 13:33:01;;;;;;;;;;;15.70;75.00;;;;;;4187339;28;19935;-66
2023/04/01 13:35:46;;;;;;;;;;;15.70;76.10;;;;;;4193752;28;20751;-67
2023/04/01 13:38:39;;;;;;;;;;;15.60;77.00;;;;;;4189071;28;19948;-67
2023/04/01 13:41:26;;;;;;;;;;;15.60;79.50;;;;;;4192698;28;20017;-68
2023/04/01 13:44:12;;;;;;;;;;;15.50;78.90;;;;;;4164524;28;20066;-64
2023/04/01 13:46:58;;;;;;;;;;;15.50;80.30;;;;;;4177087;28;19966;-66
2023/04/01 13:50:00;;;;;;;;;;;15.50;79.00;;;;;;4166832;28;20406;-66
2023/04/01 13:52:48;;;;;;;;;;;15.50;80.00;;;;;;4189735;28;20441;-65
2023/04/01 13:55:35;;;;;;;;;;;15.50;80.60;;;;;;4177077;28;19931;-64
2023/04/01 13:58:35;;;;;;;;;;;15.40;80.20;;;;;;4177386;28;19931;-66
2023/04/01 14:01:20;;;;;;;;;;;15.40;79.00;;;;;;4163458;28;20019;-64
2023/04/01 14:04:09;;;;;;;;;;;15.40;79.30;;;;;;4176894;28;20062;-64
2023/04/01 14:06:58;;;;;;;;;;;15.40;80.70;;;;;;4177244;28;20010;-64
2023/04/01 14:09:46;;;;;;;;;;;15.40;79.70;;;;;;4176718;28;19935;-63
2023/04/01 14:12:30;;;;;;;;;;;15.40;81.10;;;;;;4176318;28;19936;-63
2023/04/01 14:15:35;;;;;;;;;;;15.30;80.40;;;;;;4164380;28;19978;-64
2023/04/01 14:18:28;;;;;;;;;;;15.30;79.30;;;;;;4159542;28;20019;-64
2023/04/01 14:21:14;;;;;;;;;;;15.30;78.10;;;;;;4191121;28;19935;-63
2023/04/01 14:24:03;;;;;;;;;;;15.30;80.00;;;;;;4168242;28;19967;-64
2023/04/01 14:27:01;;;;;;;;;;;15.30;81.00;;;;;;4176338;28;20449;-64
2023/04/01 14:29:48;;;;;;;;;;;15.20;78.90;;;;;;4142592;28;20431;-66
2023/04/01 14:32:35;;;;;;;;;;;15.20;79.30;;;;;;4143688;28;20288;-67
2023/04/01 14:35:23;;;;;;;;;;;15.20;80.20;;;;;;4165453;28;19945;-64
2023/04/01 14:38:18;;;;;;;;;;;15.20;80.80;;;;;;4143531;28;20000;-68
2023/04/01 14:41:05;;;;;;;;;;;15.20;79.70;;;;;;4158271;28;19951;-67
2023/04/01 14:43:55;;;;;;;;;;;15.10;80.60;;;;;;4159266;28;19940;-68
2023/04/01 14:46:54;;;;;;;;;;;15.20;80.00;;;;;;4175299;28;19947;-66
2023/04/01 14:49:37;;;;;;;;;;;15.10;80.70;;;;;;4162398;28;20402;-65
2023/04/01 14:52:25;;;;;;;;;;;15.10;81.70;;;;;;4184542;28;19935;-67
2023/04/01 14:55:18;;;;;;;;;;;15.10;79.60;;;;;;4160692;28;20268;-63
2023/04/01 14:58:00;;;;;;;;;;;15.10;80.80;;;;;;4192574;28;19931;-64
2023/04/01 15:00:46;;;;;;;;;;;15.00;79.30;;;;;;4187742;28;19946;-64
2023/04/01 15:03:30;;;;;;;;;;;15.00;80.70;;;;;;4175791;28;19935;-65
2023/04/01 15:06:28;;;;;;;;;;;15.00;79.20;;;;;;4186168;28;19937;-65
2023/04/01 15:09:15;;;;;;;;;;;15.00;80.50;;;;;;4180888;28;19936;-66
2023/04/01 15:12:03;;;;;;;;;;;15.00;79.20;;;;;;4193119;28;20295;-65
2023/04/01 15:14:51;;;;;;;;;;;15.00;79.50;;;;;;4145710;28;20028;-65
2023/04/01 15:17:49;;;;;;;;;;;15.00;80.70;;;;;;4177228;28;20086;-65
2023/04/01 15:20:37;;;;;;;;;;;15.00;75.40;;;;;;4178733;28;19935;-65
2023/04/01 15:23:23;;;;;;;;;;;15.10;76.60;;;;;;4175811;28;19936;-65
2023/04/01 15:26:14;;;;;;;;;;;15.20;77.60;;;;;;4173146;28;19936;-66
2023/04/01 15:29:02;;;;;;;;;;;15.40;74.40;;;;;;4172323;28;20051;-65
2023/04/01 15:31:46;;;;;;;;;;;15.60;74.60;;;;;;4173236;28;20406;-66
2023/04/01 15:34:32;;;;;;;;;;;15.80;72.20;;;;;;4164321;28;19947;-64
2023/04/01 15:37:19;;;;;;;;;;;16.00;70.10;;;;;;4168887;28;20066;-64
2023/04/01 15:40:06;;;;;;;;;;;16.20;71.40;;;;;;4175307;28;19932;-64
2023/04/01 15:42:56;;;;;;;;;;;16.50;71.10;;;;;;4175597;28;19939;-65
2023/04/01 15:45:40;;;;;;;;;;;16.60;70.50;;;;;;4182975;28;19935;-64
2023/04/01 15:48:38;;;;;;;;;;;16.80;70.20;;;;;;4170146;28;20467;-65
2023/04/01 15:51:26;;;;;;;;;;;16.90;70.90;;;;;;4191700;28;20386;-66
2023/04/01 15:54:13;;;;;;;;;;;17.00;67.00;;;;;;4190573;28;19931;-66
2023/04/01 15:57:01;;;;;;;;;;;17.00;66.60;;;;;;4176347;28;20022;-64
2023/04/01 15:59:51;;;;;;;;;;;17.00;66.70;;;;;;4159254;28;19932;-63
2023/04/01 16:02:34;;;;;;;;;;;17.00;65.50;;;;;;4166898;28;19935;-66
2023/04/01 16:05:39;;;;;;;;;;;17.00;64.40;;;;;;4188105;28;19947;-65
2023/04/01 16:08:30;;;;;;;;;;;16.90;63.50;;;;;;4174958;28;20292;-65
2023/04/01 16:11:17;;;;;;;;;;;16.90;67.50;;;;;;4150060;28;19939;-66
2023/04/01 16:14:06;;;;;;;;;;;16.80;67.90;;;;;;4160064;28;20024;-63
2023/04/01 16:16:54;;;;;;;;;;;16.80;65.00;;;;;;4147127;28;20279;-62
2023/04/01 16:19:44;;;;;;;;;;;16.90;67.10;;;;;;4152655;28;19932;-63